STL weather

St Louis Lambert International Airport
St Louis, Missouri, United States

Public forecast

Using degrees Fahrenheit for public forecast. Weather courtesy of forecast.io.

Current aviation weather report (METAR) for St Louis Lambert International Airport

Retrieved 2020/04/03 19:51 UTC (50 minutes ago):

KSTL 031951Z VRB03KT 10SM SCT048 SCT100 BKN250 22/09 A2998 RMK AO2 SLP146 T02220094

Aviation forecast (TAF) for St Louis Lambert International Airport

Retrieved 2020/04/03 18:39 UTC (2 hours ago):

TAF KSTL 031737Z 0318/0424 23006KT P6SM OVC070 FM032200 29005KT P6SM VCSH OVC035 FM040000 32005KT P6SM VCSH OVC025 FM040500 33009KT P6SM -SHRA OVC015 FM041500 34008KT P6SM OVC007 FM041900 35006KT P6SM OVC035